Zutendaal, Belgium
Current Conditions -  °F | °C
As of 8:55 PM on Sunday 21 Dec 2014 (Local Time) from EHBK Reporting Station
Overcast Overcast  
Wind Chill: 36°   Ceiling: 1300
Heat Index: 45°   Visibility: 6mi
Dew Point: 43°   Wind: 24mph
Humidity: 93%   Direction: 230°SW
Pressure: 30.24"   Gusts: 39mph
Location:  50.93°N, 5.58°E
Report Text: EHBK 211955Z AUTO 23021G34KT 200V270 9999 SCT011 BKN013 OVC01607/06 Q1024 TEMPO 7000 -DZ
Loading
Personal Weather Stations






























Interactive Weather Map New forecast layout! Learn more

10-Day Weather Forecast

Advertisements
Track Severe Weather on mobile